sensor_id;sensor_type;location;lat;lon;timestamp;pressure;altitude;pressure_sealevel;temperature;humidity
66430;BME280;53242;51.694;10.006;2022-10-16T00:00:26;99172.69;;;15.74;80.65
66430;BME280;53242;51.694;10.006;2022-10-16T00:02:48;99182.31;;;15.75;80.73
66430;BME280;53242;51.694;10.006;2022-10-16T00:05:11;99177.19;;;15.74;81.10
66430;BME280;53242;51.694;10.006;2022-10-16T00:07:33;99174.09;;;15.77;81.59
66430;BME280;53242;51.694;10.006;2022-10-16T00:09:55;99177.09;;;15.81;81.11
66430;BME280;53242;51.694;10.006;2022-10-16T00:12:18;99173.25;;;15.76;81.27
66430;BME280;53242;51.694;10.006;2022-10-16T00:14:40;99183.22;;;15.81;81.40
66430;BME280;53242;51.694;10.006;2022-10-16T00:17:04;99195.84;;;15.86;82.26
66430;BME280;53242;51.694;10.006;2022-10-16T00:19:27;99202.44;;;15.83;81.16
66430;BME280;53242;51.694;10.006;2022-10-16T00:21:49;99203.34;;;15.77;81.59
66430;BME280;53242;51.694;10.006;2022-10-16T00:24:12;99196.41;;;15.76;81.76
66430;BME280;53242;51.694;10.006;2022-10-16T00:26:36;99203.25;;;15.84;81.56
66430;BME280;53242;51.694;10.006;2022-10-16T00:29:00;99202.22;;;15.73;82.07
66430;BME280;53242;51.694;10.006;2022-10-16T00:31:23;99192.47;;;15.78;82.08
66430;BME280;53242;51.694;10.006;2022-10-16T00:33:46;99202.44;;;15.83;81.77
66430;BME280;53242;51.694;10.006;2022-10-16T00:36:12;99206.13;;;15.82;81.98
66430;BME280;53242;51.694;10.006;2022-10-16T00:38:35;99204.38;;;15.88;81.40
66430;BME280;53242;51.694;10.006;2022-10-16T00:40:59;99212.25;;;15.83;81.92
66430;BME280;53242;51.694;10.006;2022-10-16T00:46:08;99202.06;;;15.79;82.17
66430;BME280;53242;51.694;10.006;2022-10-16T00:48:32;99205.75;;;15.78;82.17
66430;BME280;53242;51.694;10.006;2022-10-16T00:50:56;99203.69;;;15.81;82.14
66430;BME280;53242;51.694;10.006;2022-10-16T00:53:19;99203.25;;;15.84;81.96
66430;BME280;53242;51.694;10.006;2022-10-16T00:55:41;99204.06;;;15.84;82.34
66430;BME280;53242;51.694;10.006;2022-10-16T00:58:04;99201.03;;;15.81;82.28
66430;BME280;53242;51.694;10.006;2022-10-16T01:00:26;99191.78;;;15.83;82.06
66430;BME280;53242;51.694;10.006;2022-10-16T01:02:57;99186.22;;;15.85;82.05
66430;BME280;53242;51.694;10.006;2022-10-16T01:05:22;99188.19;;;15.77;82.25
66430;BME280;53242;51.694;10.006;2022-10-16T01:07:56;99197.53;;;15.80;82.18
66430;BME280;53242;51.694;10.006;2022-10-16T01:10:57;99190.75;;;15.84;81.93
66430;BME280;53242;51.694;10.006;2022-10-16T01:13:26;99192.94;;;15.75;82.04
66430;BME280;53242;51.694;10.006;2022-10-16T01:24:06;99210.63;;;15.82;81.33
66430;BME280;53242;51.694;10.006;2022-10-16T01:27:00;99209.00;;;15.81;81.86
66430;BME280;53242;51.694;10.006;2022-10-16T01:29:27;99214.13;;;15.70;81.93
66430;BME280;53242;51.694;10.006;2022-10-16T01:31:58;99206.13;;;15.82;81.57
66430;BME280;53242;51.694;10.006;2022-10-16T01:34:27;99204.63;;;15.74;82.65
66430;BME280;53242;51.694;10.006;2022-10-16T01:36:57;99205.22;;;15.65;82.60
66430;BME280;53242;51.694;10.006;2022-10-16T01:39:29;99212.75;;;15.68;82.56
66430;BME280;53242;51.694;10.006;2022-10-16T01:42:02;99204.28;;;15.71;82.58
66430;BME280;53242;51.694;10.006;2022-10-16T01:44:29;99210.19;;;15.73;82.59
66430;BME280;53242;51.694;10.006;2022-10-16T01:46:53;99205.91;;;15.72;82.48
66430;BME280;53242;51.694;10.006;2022-10-16T01:49:17;99205.19;;;15.76;82.61
66430;BME280;53242;51.694;10.006;2022-10-16T01:51:43;99222.31;;;15.81;82.51
66430;BME280;53242;51.694;10.006;2022-10-16T01:54:08;99215.28;;;15.74;82.79
66430;BME280;53242;51.694;10.006;2022-10-16T01:56:31;99214.44;;;15.74;82.96
66430;BME280;53242;51.694;10.006;2022-10-16T02:01:24;99220.00;;;15.72;83.03
66430;BME280;53242;51.694;10.006;2022-10-16T02:03:52;99223.94;;;15.82;82.62
66430;BME280;53242;51.694;10.006;2022-10-16T02:06:16;99225.81;;;15.81;82.41
66430;BME280;53242;51.694;10.006;2022-10-16T02:08:38;99222.41;;;15.74;82.54
66430;BME280;53242;51.694;10.006;2022-10-16T02:11:02;99225.91;;;15.74;82.94
66430;BME280;53242;51.694;10.006;2022-10-16T02:13:32;99220.13;;;15.66;82.79
66430;BME280;53242;51.694;10.006;2022-10-16T02:15:55;99230.78;;;15.66;82.62
66430;BME280;53242;51.694;10.006;2022-10-16T02:18:17;99226.03;;;15.68;82.53
66430;BME280;53242;51.694;10.006;2022-10-16T02:20:56;99223.69;;;15.71;82.62
66430;BME280;53242;51.694;10.006;2022-10-16T02:23:26;99233.78;;;15.69;82.69
66430;BME280;53242;51.694;10.006;2022-10-16T02:25:52;99234.59;;;15.70;82.43
66430;BME280;53242;51.694;10.006;2022-10-16T02:28:19;99240.25;;;15.73;82.20
66430;BME280;53242;51.694;10.006;2022-10-16T02:31:04;99254.69;;;15.77;82.03
66430;BME280;53242;51.694;10.006;2022-10-16T02:33:31;99248.47;;;15.72;81.88
66430;BME280;53242;51.694;10.006;2022-10-16T02:35:56;99247.09;;;15.69;82.12
66430;BME280;53242;51.694;10.006;2022-10-16T02:38:20;99258.28;;;15.71;82.05
66430;BME280;53242;51.694;10.006;2022-10-16T02:40:44;99252.75;;;15.73;82.04
66430;BME280;53242;51.694;10.006;2022-10-16T02:43:06;99258.88;;;15.73;81.77
66430;BME280;53242;51.694;10.006;2022-10-16T02:45:29;99245.56;;;15.73;81.96
66430;BME280;53242;51.694;10.006;2022-10-16T02:47:51;99254.59;;;15.72;81.59
66430;BME280;53242;51.694;10.006;2022-10-16T02:50:14;99242.31;;;15.71;81.74
66430;BME280;53242;51.694;10.006;2022-10-16T02:52:36;99246.38;;;15.74;81.62
66430;BME280;53242;51.694;10.006;2022-10-16T02:54:59;99236.56;;;15.74;81.53
66430;BME280;53242;51.694;10.006;2022-10-16T02:57:21;99237.34;;;15.75;81.42
66430;BME280;53242;51.694;10.006;2022-10-16T02:59:44;99238.28;;;15.69;81.50
66430;BME280;53242;51.694;10.006;2022-10-16T03:02:06;99250.31;;;15.71;81.63
66430;BME280;53242;51.694;10.006;2022-10-16T03:04:29;99241.53;;;15.71;81.36
66430;BME280;53242;51.694;10.006;2022-10-16T03:06:51;99247.44;;;15.61;81.98
66430;BME280;53242;51.694;10.006;2022-10-16T03:09:14;99238.66;;;15.60;81.71
66430;BME280;53242;51.694;10.006;2022-10-16T03:11:36;99239.81;;;15.65;81.55
66430;BME280;53242;51.694;10.006;2022-10-16T03:13:59;99239.69;;;15.59;81.75
66430;BME280;53242;51.694;10.006;2022-10-16T03:16:21;99242.00;;;15.56;81.83
66430;BME280;53242;51.694;10.006;2022-10-16T03:18:48;99241.78;;;15.57;81.79
66430;BME280;53242;51.694;10.006;2022-10-16T03:21:11;99236.69;;;15.56;81.78
66430;BME280;53242;51.694;10.006;2022-10-16T03:23:33;99244.66;;;15.56;81.47
66430;BME280;53242;51.694;10.006;2022-10-16T03:25:56;99240.84;;;15.52;81.50
66430;BME280;53242;51.694;10.006;2022-10-16T03:28:18;99244.34;;;15.52;81.70
66430;BME280;53242;51.694;10.006;2022-10-16T03:30:41;99246.75;;;15.54;81.05
66430;BME280;53242;51.694;10.006;2022-10-16T03:33:04;99250.56;;;15.58;81.02
66430;BME280;53242;51.694;10.006;2022-10-16T03:35:27;99254.84;;;15.59;80.77
66430;BME280;53242;51.694;10.006;2022-10-16T03:37:50;99255.78;;;15.53;81.04
66430;BME280;53242;51.694;10.006;2022-10-16T03:40:13;99264.91;;;15.57;80.90
66430;BME280;53242;51.694;10.006;2022-10-16T03:42:35;99271.84;;;15.58;80.75
66430;BME280;53242;51.694;10.006;2022-10-16T03:44:58;99273.38;;;15.54;80.74
66430;BME280;53242;51.694;10.006;2022-10-16T03:47:20;99271.88;;;15.46;81.14
66430;BME280;53242;51.694;10.006;2022-10-16T03:49:45;99271.63;;;15.48;81.29
66430;BME280;53242;51.694;10.006;2022-10-16T03:52:07;99271.16;;;15.51;81.39
66430;BME280;53242;51.694;10.006;2022-10-16T03:54:30;99285.50;;;15.38;81.97
66430;BME280;53242;51.694;10.006;2022-10-16T03:56:52;99278.81;;;15.47;81.66
66430;BME280;53242;51.694;10.006;2022-10-16T03:59:15;99266.66;;;15.51;81.69
66430;BME280;53242;51.694;10.006;2022-10-16T04:01:37;99271.16;;;15.51;81.65
66430;BME280;53242;51.694;10.006;2022-10-16T04:03:59;99264.44;;;15.36;82.42
66430;BME280;53242;51.694;10.006;2022-10-16T04:06:22;99265.59;;;15.28;82.79
66430;BME280;53242;51.694;10.006;2022-10-16T04:08:44;99274.53;;;15.34;82.35
66430;BME280;53242;51.694;10.006;2022-10-16T04:11:07;99273.69;;;15.22;83.13
66430;BME280;53242;51.694;10.006;2022-10-16T04:13:29;99277.63;;;15.19;83.33
66430;BME280;53242;51.694;10.006;2022-10-16T04:15:52;99286.88;;;15.17;83.57
66430;BME280;53242;51.694;10.006;2022-10-16T04:18:14;99286.63;;;15.06;83.89
66430;BME280;53242;51.694;10.006;2022-10-16T04:20:37;99293.22;;;15.16;83.66
66430;BME280;53242;51.694;10.006;2022-10-16T04:22:59;99295.75;;;15.10;83.52
66430;BME280;53242;51.694;10.006;2022-10-16T04:25:22;99299.81;;;15.13;83.72
66430;BME280;53242;51.694;10.006;2022-10-16T04:27:44;99291.28;;;15.11;83.93
66430;BME280;53242;51.694;10.006;2022-10-16T04:30:07;99291.81;;;15.01;84.33
66430;BME280;53242;51.694;10.006;2022-10-16T04:32:29;99292.97;;;15.05;83.96
66430;BME280;53242;51.694;10.006;2022-10-16T04:34:52;99285.72;;;15.01;84.52
66430;BME280;53242;51.694;10.006;2022-10-16T04:37:15;99275.88;;;15.01;84.24
66430;BME280;53242;51.694;10.006;2022-10-16T04:39:37;99283.63;;;15.03;83.98
66430;BME280;53242;51.694;10.006;2022-10-16T04:42:00;99306.91;;;14.89;84.36
66430;BME280;53242;51.694;10.006;2022-10-16T04:44:22;99306.59;;;14.97;84.06
66430;BME280;53242;51.694;10.006;2022-10-16T04:46:44;99307.53;;;15.03;83.75
66430;BME280;53242;51.694;10.006;2022-10-16T04:49:07;99311.00;;;15.03;83.67
66430;BME280;53242;51.694;10.006;2022-10-16T04:51:29;99291.94;;;14.94;83.79
66430;BME280;53242;51.694;10.006;2022-10-16T04:53:52;99288.13;;;15.02;83.48
66430;BME280;53242;51.694;10.006;2022-10-16T04:56:14;99295.75;;;14.99;83.44
66430;BME280;53242;51.694;10.006;2022-10-16T04:58:37;99300.34;;;14.91;83.62
66430;BME280;53242;51.694;10.006;2022-10-16T05:01:00;99303.59;;;14.93;83.91
66430;BME280;53242;51.694;10.006;2022-10-16T05:03:22;99300.47;;;14.96;83.64
66430;BME280;53242;51.694;10.006;2022-10-16T05:05:45;99302.09;;;14.98;83.49
66430;BME280;53242;51.694;10.006;2022-10-16T05:08:08;99290.66;;;14.97;83.41
66430;BME280;53242;51.694;10.006;2022-10-16T05:10:30;99297.25;;;14.94;83.70
66430;BME280;53242;51.694;10.006;2022-10-16T05:12:53;99297.00;;;14.96;83.59
66430;BME280;53242;51.694;10.006;2022-10-16T05:15:15;99270.56;;;15.01;83.12
66430;BME280;53242;51.694;10.006;2022-10-16T05:17:38;99264.88;;;14.98;83.31
66430;BME280;53242;51.694;10.006;2022-10-16T05:20:00;99266.28;;;15.00;83.24
66430;BME280;53242;51.694;10.006;2022-10-16T05:22:22;99297.59;;;14.98;83.29
66430;BME280;53242;51.694;10.006;2022-10-16T05:24:45;99310.69;;;15.11;82.56
66430;BME280;53242;51.694;10.006;2022-10-16T05:27:07;99309.50;;;15.07;82.86
66430;BME280;53242;51.694;10.006;2022-10-16T05:29:30;99320.84;;;15.15;82.49
66430;BME280;53242;51.694;10.006;2022-10-16T05:31:53;99325.00;;;15.22;82.01
66430;BME280;53242;51.694;10.006;2022-10-16T05:34:15;99328.72;;;15.21;82.13
66430;BME280;53242;51.694;10.006;2022-10-16T05:36:38;99327.47;;;15.24;81.98
66430;BME280;53242;51.694;10.006;2022-10-16T05:39:00;99316.34;;;15.27;81.98
66430;BME280;53242;51.694;10.006;2022-10-16T05:41:23;99314.59;;;15.09;82.35
66430;BME280;53242;51.694;10.006;2022-10-16T05:43:48;99320.41;;;15.18;81.94
66430;BME280;53242;51.694;10.006;2022-10-16T05:46:10;99316.59;;;15.13;82.13
66430;BME280;53242;51.694;10.006;2022-10-16T05:48:33;99325.00;;;15.22;81.64
66430;BME280;53242;51.694;10.006;2022-10-16T05:50:59;99323.16;;;15.11;81.98
66430;BME280;53242;51.694;10.006;2022-10-16T05:53:22;99336.22;;;15.12;81.96
66430;BME280;53242;51.694;10.006;2022-10-16T05:55:51;99344.56;;;15.16;81.87
66430;BME280;53242;51.694;10.006;2022-10-16T05:58:14;99352.28;;;15.18;81.62
66430;BME280;53242;51.694;10.006;2022-10-16T06:00:36;99353.34;;;15.28;81.26
66430;BME280;53242;51.694;10.006;2022-10-16T06:02:59;99349.06;;;15.27;81.05
66430;BME280;53242;51.694;10.006;2022-10-16T06:05:21;99361.22;;;15.35;80.92
66430;BME280;53242;51.694;10.006;2022-10-16T06:07:43;99367.59;;;15.34;80.83
66430;BME280;53242;51.694;10.006;2022-10-16T06:10:06;99367.22;;;15.31;81.01
66430;BME280;53242;51.694;10.006;2022-10-16T06:12:29;99379.38;;;15.26;81.22
66430;BME280;53242;51.694;10.006;2022-10-16T06:14:52;99370.00;;;15.24;81.24
66430;BME280;53242;51.694;10.006;2022-10-16T06:17:15;99379.25;;;15.33;81.03
66430;BME280;53242;51.694;10.006;2022-10-16T06:19:37;99390.13;;;15.32;81.00
66430;BME280;53242;51.694;10.006;2022-10-16T06:21:59;99394.72;;;15.24;81.43
66430;BME280;53242;51.694;10.006;2022-10-16T06:24:22;99403.59;;;15.18;81.47
66430;BME280;53242;51.694;10.006;2022-10-16T06:26:44;99401.81;;;15.31;81.28
66430;BME280;53242;51.694;10.006;2022-10-16T06:29:08;99403.63;;;15.30;81.27
66430;BME280;53242;51.694;10.006;2022-10-16T06:31:30;99399.56;;;15.27;81.16
66430;BME280;53242;51.694;10.006;2022-10-16T06:33:55;99402.22;;;15.27;81.31
66430;BME280;53242;51.694;10.006;2022-10-16T06:36:18;99398.91;;;15.32;81.06
66430;BME280;53242;51.694;10.006;2022-10-16T06:38:41;99401.19;;;15.28;81.25
66430;BME280;53242;51.694;10.006;2022-10-16T06:41:05;99395.56;;;15.37;81.14
66430;BME280;53242;51.694;10.006;2022-10-16T06:43:29;99411.59;;;15.30;81.39
66430;BME280;53242;51.694;10.006;2022-10-16T06:45:55;99414.13;;;15.25;81.78
66430;BME280;53242;51.694;10.006;2022-10-16T06:48:18;99420.03;;;15.27;81.47
66430;BME280;53242;51.694;10.006;2022-10-16T06:50:41;99431.00;;;15.19;81.72
66430;BME280;53242;51.694;10.006;2022-10-16T06:53:03;99426.41;;;15.26;81.68
66430;BME280;53242;51.694;10.006;2022-10-16T06:55:26;99435.75;;;15.17;81.79
66430;BME280;53242;51.694;10.006;2022-10-16T06:57:48;99443.25;;;15.20;81.70
66430;BME280;53242;51.694;10.006;2022-10-16T07:00:11;99446.50;;;15.22;81.71
66430;BME280;53242;51.694;10.006;2022-10-16T07:02:33;99456.34;;;15.21;81.98
66430;BME280;53242;51.694;10.006;2022-10-16T07:04:56;99468.66;;;15.16;82.27
66430;BME280;53242;51.694;10.006;2022-10-16T07:07:19;99462.69;;;15.20;81.67
66430;BME280;53242;51.694;10.006;2022-10-16T07:09:41;99460.13;;;15.13;82.11
66430;BME280;53242;51.694;10.006;2022-10-16T07:12:04;99460.41;;;15.24;81.72
66430;BME280;53242;51.694;10.006;2022-10-16T07:14:26;99470.28;;;15.17;81.85
66430;BME280;53242;51.694;10.006;2022-10-16T07:16:49;99465.34;;;15.20;81.83
66430;BME280;53242;51.694;10.006;2022-10-16T07:19:11;99461.66;;;15.21;81.75
66430;BME280;53242;51.694;10.006;2022-10-16T07:21:36;99466.97;;;15.21;81.63
66430;BME280;53242;51.694;10.006;2022-10-16T07:23:59;99467.31;;;15.25;81.55
66430;BME280;53242;51.694;10.006;2022-10-16T07:26:24;99482.09;;;15.21;81.66
66430;BME280;53242;51.694;10.006;2022-10-16T07:28:46;99477.88;;;15.32;81.16
66430;BME280;53242;51.694;10.006;2022-10-16T07:31:12;99485.75;;;15.38;81.08
66430;BME280;53242;51.694;10.006;2022-10-16T07:33:35;99497.81;;;15.53;80.55
66430;BME280;53242;51.694;10.006;2022-10-16T07:35:57;99492.41;;;15.59;80.39
66430;BME280;53242;51.694;10.006;2022-10-16T07:38:20;99501.00;;;15.73;80.31
66430;BME280;53242;51.694;10.006;2022-10-16T07:40:44;99495.16;;;15.83;79.89
66430;BME280;53242;51.694;10.006;2022-10-16T07:43:06;99500.47;;;15.83;79.81
66430;BME280;53242;51.694;10.006;2022-10-16T07:45:29;99504.78;;;15.84;79.59
66430;BME280;53242;51.694;10.006;2022-10-16T07:47:51;99498.63;;;15.95;79.06
66430;BME280;53242;51.694;10.006;2022-10-16T07:50:14;99495.06;;;16.02;78.64
66430;BME280;53242;51.694;10.006;2022-10-16T07:52:36;99515.91;;;16.17;78.08
66430;BME280;53242;51.694;10.006;2022-10-16T07:54:59;99513.94;;;16.24;77.61
66430;BME280;53242;51.694;10.006;2022-10-16T07:57:21;99518.09;;;16.20;77.52
66430;BME280;53242;51.694;10.006;2022-10-16T07:59:43;99525.41;;;16.36;76.91
66430;BME280;53242;51.694;10.006;2022-10-16T08:02:07;99536.66;;;16.38;76.67
66430;BME280;53242;51.694;10.006;2022-10-16T08:04:29;99528.53;;;16.45;76.31
66430;BME280;53242;51.694;10.006;2022-10-16T08:06:52;99527.28;;;16.36;76.56
66430;BME280;53242;51.694;10.006;2022-10-16T08:09:14;99517.06;;;16.44;76.57
66430;BME280;53242;51.694;10.006;2022-10-16T08:11:36;99519.38;;;16.29;76.39
66430;BME280;53242;51.694;10.006;2022-10-16T08:13:59;99521.34;;;16.46;75.35
66430;BME280;53242;51.694;10.006;2022-10-16T08:16:21;99532.81;;;16.58;75.22
66430;BME280;53242;51.694;10.006;2022-10-16T08:18:44;99532.13;;;16.39;75.66
66430;BME280;53242;51.694;10.006;2022-10-16T08:21:12;99532.56;;;16.24;75.39
66430;BME280;53242;51.694;10.006;2022-10-16T08:23:35;99525.06;;;16.21;75.33
66430;BME280;53242;51.694;10.006;2022-10-16T08:26:03;99545.75;;;16.19;74.71
66430;BME280;53242;51.694;10.006;2022-10-16T08:28:25;99550.06;;;16.20;75.57
66430;BME280;53242;51.694;10.006;2022-10-16T08:30:48;99550.75;;;16.15;75.73
66430;BME280;53242;51.694;10.006;2022-10-16T08:33:10;99553.88;;;16.24;75.54
66430;BME280;53242;51.694;10.006;2022-10-16T08:35:33;99559.06;;;16.19;75.92
66430;BME280;53242;51.694;10.006;2022-10-16T08:37:56;99566.38;;;16.23;75.49
66430;BME280;53242;51.694;10.006;2022-10-16T08:40:27;99577.53;;;16.32;74.03
66430;BME280;53242;51.694;10.006;2022-10-16T08:43:17;99583.75;;;16.38;74.04
66430;BME280;53242;51.694;10.006;2022-10-16T08:51:03;99573.09;;;16.50;73.97
66430;BME280;53242;51.694;10.006;2022-10-16T08:53:46;99579.75;;;16.59;73.22
66430;BME280;53242;51.694;10.006;2022-10-16T08:56:11;99589.25;;;16.67;73.15
66430;BME280;53242;51.694;10.006;2022-10-16T08:58:33;99596.06;;;16.74;73.00
66430;BME280;53242;51.694;10.006;2022-10-16T09:00:58;99591.41;;;16.82;72.89
66430;BME280;53242;51.694;10.006;2022-10-16T09:08:34;99602.19;;;16.87;72.03
66430;BME280;53242;51.694;10.006;2022-10-16T09:17:01;99601.41;;;16.98;70.98
66430;BME280;53242;51.694;10.006;2022-10-16T09:19:54;99608.91;;;17.01;71.68
66430;BME280;53242;51.694;10.006;2022-10-16T09:22:16;99608.22;;;17.06;71.46
66430;BME280;53242;51.694;10.006;2022-10-16T09:24:40;99618.72;;;17.24;70.62
66430;BME280;53242;51.694;10.006;2022-10-16T09:27:03;99622.47;;;17.23;70.63
66430;BME280;53242;51.694;10.006;2022-10-16T09:29:25;99630.22;;;17.25;70.89
66430;BME280;53242;51.694;10.006;2022-10-16T09:31:48;99630.59;;;17.05;71.28
66430;BME280;53242;51.694;10.006;2022-10-16T09:34:30;99629.91;;;17.09;70.01
66430;BME280;53242;51.694;10.006;2022-10-16T09:36:54;99631.53;;;16.99;70.77
66430;BME280;53242;51.694;10.006;2022-10-16T09:39:19;99623.16;;;16.83;71.21
66430;BME280;53242;51.694;10.006;2022-10-16T09:41:43;99626.44;;;16.97;70.52
66430;BME280;53242;51.694;10.006;2022-10-16T09:44:18;99630.47;;;17.12;69.60
66430;BME280;53242;51.694;10.006;2022-10-16T09:46:43;99632.00;;;17.07;69.36
66430;BME280;53242;51.694;10.006;2022-10-16T09:51:43;99631.78;;;17.79;68.37
66430;BME280;53242;51.694;10.006;2022-10-16T09:56:33;99642.88;;;17.99;66.77
66430;BME280;53242;51.694;10.006;2022-10-16T09:59:00;99623.09;;;18.29;66.82
66430;BME280;53242;51.694;10.006;2022-10-16T10:01:28;99637.44;;;18.40;66.07
66430;BME280;53242;51.694;10.006;2022-10-16T10:03:55;99631.38;;;18.45;66.05
66430;BME280;53242;51.694;10.006;2022-10-16T10:06:33;99644.72;;;18.62;66.26
66430;BME280;53242;51.694;10.006;2022-10-16T10:08:59;99637.59;;;18.33;65.36
66430;BME280;53242;51.694;10.006;2022-10-16T10:11:45;99640.19;;;18.28;65.36
66430;BME280;53242;51.694;10.006;2022-10-16T10:14:25;99641.97;;;18.39;66.24
66430;BME280;53242;51.694;10.006;2022-10-16T10:16:49;99653.91;;;18.20;66.16
66430;BME280;53242;51.694;10.006;2022-10-16T10:19:22;99639.94;;;18.30;64.90
66430;BME280;53242;51.694;10.006;2022-10-16T10:21:46;99647.91;;;18.59;65.11
66430;BME280;53242;51.694;10.006;2022-10-16T10:24:17;99650.22;;;18.72;64.87
66430;BME280;53242;51.694;10.006;2022-10-16T10:29:15;99654.69;;;18.83;64.64
66430;BME280;53242;51.694;10.006;2022-10-16T10:42:52;99655.25;;;18.68;63.81
66430;BME280;53242;51.694;10.006;2022-10-16T10:45:41;99661.50;;;18.91;63.56
66430;BME280;53242;51.694;10.006;2022-10-16T10:50:57;99659.78;;;19.24;61.34
66430;BME280;53242;51.694;10.006;2022-10-16T10:53:41;99667.22;;;19.17;61.05
66430;BME280;53242;51.694;10.006;2022-10-16T10:56:30;99668.66;;;19.25;60.12
66430;BME280;53242;51.694;10.006;2022-10-16T10:59:19;99680.84;;;19.15;60.29
66430;BME280;53242;51.694;10.006;2022-10-16T11:02:18;99674.94;;;19.35;59.84
66430;BME280;53242;51.694;10.006;2022-10-16T11:07:21;99673.91;;;18.97;59.93
66430;BME280;53242;51.694;10.006;2022-10-16T11:09:49;99676.63;;;18.68;59.11
66430;BME280;53242;51.694;10.006;2022-10-16T11:12:22;99666.34;;;18.60;57.02
66430;BME280;53242;51.694;10.006;2022-10-16T11:15:17;99673.91;;;18.17;59.04
66430;BME280;53242;51.694;10.006;2022-10-16T11:17:46;99676.38;;;18.19;58.80
66430;BME280;53242;51.694;10.006;2022-10-16T11:20:32;99676.88;;;18.04;58.77
66430;BME280;53242;51.694;10.006;2022-10-16T11:25:39;99678.88;;;18.43;58.21
66430;BME280;53242;51.694;10.006;2022-10-16T11:28:14;99685.94;;;18.66;56.82
66430;BME280;53242;51.694;10.006;2022-10-16T11:30:47;99691.53;;;19.15;56.60
66430;BME280;53242;51.694;10.006;2022-10-16T11:35:59;99678.31;;;19.48;56.09
66430;BME280;53242;51.694;10.006;2022-10-16T11:38:30;99685.78;;;19.46;54.97
66430;BME280;53242;51.694;10.006;2022-10-16T11:41:03;99683.03;;;19.41;54.27
66430;BME280;53242;51.694;10.006;2022-10-16T11:43:37;99679.16;;;19.53;54.10
66430;BME280;53242;51.694;10.006;2022-10-16T11:46:08;99684.03;;;19.79;53.54
66430;BME280;53242;51.694;10.006;2022-10-16T11:48:39;99675.88;;;19.68;53.50
66430;BME280;53242;51.694;10.006;2022-10-16T11:53:45;99667.91;;;19.51;53.66
66430;BME280;53242;51.694;10.006;2022-10-16T11:56:13;99672.69;;;19.71;54.09
66430;BME280;53242;51.694;10.006;2022-10-16T12:03:59;99667.91;;;19.74;52.87
66430;BME280;53242;51.694;10.006;2022-10-16T12:09:27;99669.16;;;19.66;51.99
66430;BME280;53242;51.694;10.006;2022-10-16T12:11:49;99670.34;;;19.53;53.29
66430;BME280;53242;51.694;10.006;2022-10-16T12:16:37;99676.34;;;19.65;53.10
66430;BME280;53242;51.694;10.006;2022-10-16T12:19:19;99679.88;;;19.66;52.15
66430;BME280;53242;51.694;10.006;2022-10-16T12:21:43;99671.25;;;19.64;52.54
66430;BME280;53242;51.694;10.006;2022-10-16T12:24:06;99674.06;;;19.52;52.77
66430;BME280;53242;51.694;10.006;2022-10-16T12:26:31;99680.34;;;19.63;53.35
66430;BME280;53242;51.694;10.006;2022-10-16T12:29:12;99682.47;;;19.61;52.18
66430;BME280;53242;51.694;10.006;2022-10-16T12:31:39;99680.28;;;19.58;53.08
66430;BME280;53242;51.694;10.006;2022-10-16T12:34:05;99679.75;;;19.55;52.52
66430;BME280;53242;51.694;10.006;2022-10-16T12:36:31;99676.00;;;19.57;52.47
66430;BME280;53242;51.694;10.006;2022-10-16T12:38:54;99675.81;;;19.63;53.23
66430;BME280;53242;51.694;10.006;2022-10-16T12:41:34;99682.41;;;19.55;51.70
66430;BME280;53242;51.694;10.006;2022-10-16T12:43:58;99681.59;;;19.55;53.15
66430;BME280;53242;51.694;10.006;2022-10-16T12:48:51;99688.31;;;19.35;54.11
66430;BME280;53242;51.694;10.006;2022-10-16T12:54:24;99699.63;;;19.20;54.04
66430;BME280;53242;51.694;10.006;2022-10-16T12:57:18;99688.44;;;19.23;52.86
66430;BME280;53242;51.694;10.006;2022-10-16T13:00:04;99693.22;;;19.21;52.79
66430;BME280;53242;51.694;10.006;2022-10-16T13:05:57;99688.47;;;19.06;53.26
66430;BME280;53242;51.694;10.006;2022-10-16T13:14:24;99712.25;;;19.25;53.76
66430;BME280;53242;51.694;10.006;2022-10-16T13:22:34;99721.06;;;19.65;53.53
66430;BME280;53242;51.694;10.006;2022-10-16T13:27:45;99725.00;;;19.57;52.71
66430;BME280;53242;51.694;10.006;2022-10-16T13:30:23;99731.78;;;19.65;52.18
66430;BME280;53242;51.694;10.006;2022-10-16T13:32:48;99735.19;;;19.60;52.17
66430;BME280;53242;51.694;10.006;2022-10-16T13:35:27;99739.31;;;19.68;52.00
66430;BME280;53242;51.694;10.006;2022-10-16T13:37:50;99746.47;;;19.62;52.08
66430;BME280;53242;51.694;10.006;2022-10-16T13:40:24;99744.06;;;19.61;51.00
66430;BME280;53242;51.694;10.006;2022-10-16T13:42:46;99738.00;;;19.70;51.41
66430;BME280;53242;51.694;10.006;2022-10-16T13:45:18;99743.00;;;19.62;51.17
66430;BME280;53242;51.694;10.006;2022-10-16T13:47:40;99735.84;;;19.67;51.26
66430;BME280;53242;51.694;10.006;2022-10-16T13:50:09;99732.03;;;19.63;51.49
66430;BME280;53242;51.694;10.006;2022-10-16T13:52:33;99739.63;;;19.71;51.52
66430;BME280;53242;51.694;10.006;2022-10-16T13:54:56;99737.41;;;19.63;51.13
66430;BME280;53242;51.694;10.006;2022-10-16T13:57:22;99741.25;;;19.50;50.89
66430;BME280;53242;51.694;10.006;2022-10-16T13:59:44;99732.03;;;19.63;50.76
66430;BME280;53242;51.694;10.006;2022-10-16T14:04:42;99737.47;;;19.68;51.20
66430;BME280;53242;51.694;10.006;2022-10-16T14:07:04;99741.56;;;19.76;51.15
66430;BME280;53242;51.694;10.006;2022-10-16T14:09:30;99751.91;;;19.67;51.11
66430;BME280;53242;51.694;10.006;2022-10-16T14:12:00;99747.22;;;19.58;50.67
66430;BME280;53242;51.694;10.006;2022-10-16T14:14:23;99755.19;;;19.52;51.51
66430;BME280;53242;51.694;10.006;2022-10-16T14:16:47;99762.25;;;19.42;51.09
66430;BME280;53242;51.694;10.006;2022-10-16T14:19:24;99765.59;;;19.49;51.15
66430;BME280;53242;51.694;10.006;2022-10-16T14:21:49;99760.16;;;19.44;51.40